Terminal Aerodrome Forecast
Issued by NWS

Home | Current Version | Previous Version | Text Only | Print | Product List | Glossary On
Versions: 1 2 3 4 5 6 7 8 9 10 11 12 13 14 15 16 17 18 19 20 21 22 23 24 25 26 27
469
FTUS41 KPBZ 122102 AAC
TAFDUJ
TAF AMD
KDUJ 122102Z 1221/1318 23012KT 2SM -SN BKN025
     FM130100 30015G25KT 2SM -SHSN OVC015
      TEMPO 1301/1305 1/2SM SHSN OVC005
     FM130900 30010G20KT 4SM -SHSN BKN015=

USA.gov is the U.S. government's official web portal to all federal, state and local government web resources and services.